Porthleven, United Kingdom
Current Conditions -  °F | °C
As of 11:50 PM on Monday 24 Nov 2014 (Local Time) from EGDR Reporting Station
Few Clouds Few Clouds  
Wind Chill: 26°   Ceiling: Unl
Heat Index: 34°   Visibility: 6mi
Dew Point: 28°   Wind: 9mph
Humidity: 81%   Direction: 50°NE
Pressure: 30.27"   Gusts: NA
Location:  50.09°N, 5.32°W
Report Text: EGDR 242350Z 05008KT 9999 FEW035 01/M02 Q1025 BLU
Loading
Personal Weather Stations






























Interactive Weather Map New forecast layout! Learn more

10-Day Weather Forecast

Advertisements
Track Severe Weather on mobile